sensor_id;sensor_type;location;lat;lon;timestamp;pressure;altitude;pressure_sealevel;temperature;humidity
52469;BME280;38381;53.688;10.776;2023-03-24T00:02:58;99817.50;;;8.77;100.00
52469;BME280;38381;53.688;10.776;2023-03-24T00:08:01;99817.50;;;8.82;100.00
52469;BME280;38381;53.688;10.776;2023-03-24T00:13:03;99805.41;;;8.87;100.00
52469;BME280;38381;53.688;10.776;2023-03-24T00:18:03;99796.78;;;8.85;100.00
52469;BME280;38381;53.688;10.776;2023-03-24T00:23:04;99781.25;;;8.90;100.00
52469;BME280;38381;53.688;10.776;2023-03-24T00:28:04;99780.38;;;9.04;100.00
52469;BME280;38381;53.688;10.776;2023-03-24T00:33:06;99764.00;;;8.98;99.88
52469;BME280;38381;53.688;10.776;2023-03-24T00:38:07;99766.59;;;9.09;100.00
52469;BME280;38381;53.688;10.776;2023-03-24T00:43:07;99757.06;;;9.12;99.06
52469;BME280;38381;53.688;10.776;2023-03-24T00:48:08;99750.13;;;9.23;97.93
52469;BME280;38381;53.688;10.776;2023-03-24T00:53:10;99749.28;;;9.23;98.51
52469;BME280;38381;53.688;10.776;2023-03-24T00:58:15;99746.69;;;9.20;99.16
52469;BME280;38381;53.688;10.776;2023-03-24T01:03:22;99724.22;;;9.30;99.27
52469;BME280;38381;53.688;10.776;2023-03-24T01:08:26;99725.91;;;9.37;99.38
52469;BME280;38381;53.688;10.776;2023-03-24T01:13:28;99714.75;;;9.27;100.00
52469;BME280;38381;53.688;10.776;2023-03-24T01:18:29;99709.53;;;9.36;100.00
52469;BME280;38381;53.688;10.776;2023-03-24T01:23:29;99698.38;;;9.23;100.00
52469;BME280;38381;53.688;10.776;2023-03-24T01:28:30;99689.72;;;9.34;100.00
52469;BME280;38381;53.688;10.776;2023-03-24T01:33:31;99682.84;;;9.26;100.00
52469;BME280;38381;53.688;10.776;2023-03-24T01:38:31;99682.88;;;9.23;100.00
52469;BME280;38381;53.688;10.776;2023-03-24T01:43:33;99668.97;;;9.37;100.00
52469;BME280;38381;53.688;10.776;2023-03-24T01:53:46;99642.31;;;9.27;100.00
52469;BME280;38381;53.688;10.776;2023-03-24T01:58:53;99635.38;;;9.35;100.00
52469;BME280;38381;53.688;10.776;2023-03-24T02:03:57;99618.97;;;9.36;100.00
52469;BME280;38381;53.688;10.776;2023-03-24T02:08:59;99614.69;;;9.31;100.00
52469;BME280;38381;53.688;10.776;2023-03-24T02:14:01;99599.19;;;9.29;100.00
52469;BME280;38381;53.688;10.776;2023-03-24T02:45:35;99528.53;;;9.21;100.00
52469;BME280;38381;53.688;10.776;2023-03-24T02:50:51;99529.34;;;9.26;100.00
52469;BME280;38381;53.688;10.776;2023-03-24T02:56:41;99502.63;;;9.22;100.00
52469;BME280;38381;53.688;10.776;2023-03-24T03:01:57;99495.59;;;9.38;100.00
52469;BME280;38381;53.688;10.776;2023-03-24T03:07:04;99481.81;;;9.36;100.00
52469;BME280;38381;53.688;10.776;2023-03-24T03:12:10;99467.19;;;9.34;100.00
52469;BME280;38381;53.688;10.776;2023-03-24T03:17:18;99457.81;;;9.22;100.00
52469;BME280;38381;53.688;10.776;2023-03-24T03:22:22;99450.88;;;9.25;100.00
52469;BME280;38381;53.688;10.776;2023-03-24T03:27:28;99450.94;;;9.21;100.00
52469;BME280;38381;53.688;10.776;2023-03-24T03:32:33;99436.25;;;9.21;100.00
52469;BME280;38381;53.688;10.776;2023-03-24T03:37:51;99439.53;;;9.40;100.00
52469;BME280;38381;53.688;10.776;2023-03-24T03:42:53;99426.69;;;9.28;100.00
52469;BME280;38381;53.688;10.776;2023-03-24T03:47:54;99413.88;;;9.19;100.00
52469;BME280;38381;53.688;10.776;2023-03-24T03:52:54;99404.38;;;9.21;100.00
52469;BME280;38381;53.688;10.776;2023-03-24T03:57:56;99393.91;;;9.30;100.00
52469;BME280;38381;53.688;10.776;2023-03-24T04:09:05;99365.31;;;9.42;100.00
52469;BME280;38381;53.688;10.776;2023-03-24T04:24:54;99344.56;;;9.47;100.00
52469;BME280;38381;53.688;10.776;2023-03-24T04:30:14;99340.28;;;9.44;100.00
52469;BME280;38381;53.688;10.776;2023-03-24T04:35:20;99331.59;;;9.49;100.00
52469;BME280;38381;53.688;10.776;2023-03-24T04:40:33;99335.00;;;9.54;100.00
52469;BME280;38381;53.688;10.776;2023-03-24T04:45:36;99334.13;;;9.53;100.00
52469;BME280;38381;53.688;10.776;2023-03-24T04:50:39;99316.53;;;9.80;100.00
52469;BME280;38381;53.688;10.776;2023-03-24T05:00:50;99305.81;;;9.42;100.00
52469;BME280;38381;53.688;10.776;2023-03-24T05:05:51;99299.78;;;9.43;100.00
52469;BME280;38381;53.688;10.776;2023-03-24T05:10:52;99290.03;;;9.61;100.00
52469;BME280;38381;53.688;10.776;2023-03-24T05:15:53;99287.44;;;9.64;100.00
52469;BME280;38381;53.688;10.776;2023-03-24T05:20:53;99274.44;;;9.67;100.00
52469;BME280;38381;53.688;10.776;2023-03-24T05:25:55;99268.41;;;9.65;100.00
52469;BME280;38381;53.688;10.776;2023-03-24T05:30:57;99261.47;;;9.69;100.00
52469;BME280;38381;53.688;10.776;2023-03-24T05:35:57;99266.56;;;9.73;100.00
52469;BME280;38381;53.688;10.776;2023-03-24T05:40:59;99256.97;;;9.81;100.00
52469;BME280;38381;53.688;10.776;2023-03-24T05:46:00;99254.38;;;9.80;100.00
52469;BME280;38381;53.688;10.776;2023-03-24T05:51:00;99256.03;;;9.87;100.00
52469;BME280;38381;53.688;10.776;2023-03-24T05:56:01;99255.94;;;9.93;100.00
52469;BME280;38381;53.688;10.776;2023-03-24T06:01:09;99254.22;;;9.92;100.00
52469;BME280;38381;53.688;10.776;2023-03-24T06:06:10;99244.53;;;10.05;100.00
52469;BME280;38381;53.688;10.776;2023-03-24T06:11:13;99241.16;;;10.00;100.00
52469;BME280;38381;53.688;10.776;2023-03-24T06:16:14;99229.03;;;10.02;100.00
52469;BME280;38381;53.688;10.776;2023-03-24T06:21:18;99239.28;;;10.08;100.00
52469;BME280;38381;53.688;10.776;2023-03-24T06:26:19;99227.97;;;10.15;100.00
52469;BME280;38381;53.688;10.776;2023-03-24T06:31:20;99217.44;;;10.23;100.00
52469;BME280;38381;53.688;10.776;2023-03-24T06:36:21;99210.56;;;10.22;100.00
52469;BME280;38381;53.688;10.776;2023-03-24T06:41:22;99207.06;;;10.26;100.00
52469;BME280;38381;53.688;10.776;2023-03-24T06:46:23;99209.38;;;10.43;100.00
52469;BME280;38381;53.688;10.776;2023-03-24T06:51:23;99200.75;;;10.42;100.00
52469;BME280;38381;53.688;10.776;2023-03-24T06:56:24;99206.66;;;10.51;100.00
52469;BME280;38381;53.688;10.776;2023-03-24T07:01:24;99215.66;;;10.28;100.00
52469;BME280;38381;53.688;10.776;2023-03-24T07:06:25;99223.00;;;10.54;100.00
52469;BME280;38381;53.688;10.776;2023-03-24T07:11:25;99216.44;;;10.35;100.00
52469;BME280;38381;53.688;10.776;2023-03-24T07:16:26;99222.13;;;10.54;100.00
52469;BME280;38381;53.688;10.776;2023-03-24T07:21:26;99225.09;;;10.80;100.00
52469;BME280;38381;53.688;10.776;2023-03-24T07:26:27;99229.16;;;10.94;100.00
52469;BME280;38381;53.688;10.776;2023-03-24T07:31:27;99233.78;;;10.79;100.00
52469;BME280;38381;53.688;10.776;2023-03-24T07:36:28;99225.09;;;11.24;100.00
52469;BME280;38381;53.688;10.776;2023-03-24T07:41:28;99235.69;;;11.13;100.00
52469;BME280;38381;53.688;10.776;2023-03-24T07:46:28;99239.03;;;11.20;100.00
52469;BME280;38381;53.688;10.776;2023-03-24T07:51:29;99234.44;;;11.33;100.00
52469;BME280;38381;53.688;10.776;2023-03-24T07:56:29;99252.44;;;11.40;100.00
52469;BME280;38381;53.688;10.776;2023-03-24T08:01:30;99282.66;;;11.44;100.00
52469;BME280;38381;53.688;10.776;2023-03-24T08:06:31;99305.06;;;11.47;100.00
52469;BME280;38381;53.688;10.776;2023-03-24T08:11:31;99309.31;;;11.51;100.00
52469;BME280;38381;53.688;10.776;2023-03-24T08:16:32;99301.66;;;11.45;98.17
52469;BME280;38381;53.688;10.776;2023-03-24T08:21:32;99342.28;;;11.47;96.37
52469;BME280;38381;53.688;10.776;2023-03-24T08:26:32;99332.72;;;11.50;93.76
52469;BME280;38381;53.688;10.776;2023-03-24T08:31:35;99352.50;;;11.57;92.49
52469;BME280;38381;53.688;10.776;2023-03-24T08:36:36;99349.91;;;11.55;89.93
52469;BME280;38381;53.688;10.776;2023-03-24T08:41:36;99379.88;;;11.72;85.69
52469;BME280;38381;53.688;10.776;2023-03-24T08:46:38;99382.09;;;11.92;85.90
52469;BME280;38381;53.688;10.776;2023-03-24T08:51:39;99392.53;;;11.88;83.47
52469;BME280;38381;53.688;10.776;2023-03-24T08:56:39;99403.81;;;11.87;83.99
52469;BME280;38381;53.688;10.776;2023-03-24T09:01:40;99389.28;;;12.19;84.40
52469;BME280;38381;53.688;10.776;2023-03-24T09:06:41;99417.81;;;12.22;78.68
52469;BME280;38381;53.688;10.776;2023-03-24T09:11:41;99429.56;;;12.00;78.32
52469;BME280;38381;53.688;10.776;2023-03-24T09:16:42;99417.16;;;12.13;78.82
52469;BME280;38381;53.688;10.776;2023-03-24T09:21:45;99423.63;;;12.34;77.81
52469;BME280;38381;53.688;10.776;2023-03-24T09:26:45;99434.03;;;12.34;75.35
52469;BME280;38381;53.688;10.776;2023-03-24T09:31:46;99467.34;;;12.16;76.11
52469;BME280;38381;53.688;10.776;2023-03-24T09:36:46;99457.75;;;12.18;75.21
52469;BME280;38381;53.688;10.776;2023-03-24T09:41:47;99468.72;;;11.91;75.01
52469;BME280;38381;53.688;10.776;2023-03-24T09:46:53;99475.75;;;11.84;75.27
52469;BME280;38381;53.688;10.776;2023-03-24T09:52:04;99494.97;;;11.74;75.23
52469;BME280;38381;53.688;10.776;2023-03-24T09:57:10;99487.00;;;11.83;74.26
52469;BME280;38381;53.688;10.776;2023-03-24T10:02:20;99486.91;;;11.89;73.27
52469;BME280;38381;53.688;10.776;2023-03-24T10:07:30;99498.81;;;12.01;72.39
52469;BME280;38381;53.688;10.776;2023-03-24T10:12:39;99510.00;;;12.04;73.11
52469;BME280;38381;53.688;10.776;2023-03-24T10:18:14;99526.75;;;11.90;72.67
52469;BME280;38381;53.688;10.776;2023-03-24T10:23:38;99527.00;;;11.74;72.82
52469;BME280;38381;53.688;10.776;2023-03-24T10:33:57;99530.44;;;11.75;72.06
52469;BME280;38381;53.688;10.776;2023-03-24T10:38:57;99522.63;;;11.76;71.29
52469;BME280;38381;53.688;10.776;2023-03-24T10:43:58;99534.56;;;11.90;70.46
52469;BME280;38381;53.688;10.776;2023-03-24T10:49:13;99528.25;;;12.01;70.63
52469;BME280;38381;53.688;10.776;2023-03-24T10:54:21;99544.66;;;12.05;69.56
52469;BME280;38381;53.688;10.776;2023-03-24T10:59:34;99554.06;;;12.12;69.36
52469;BME280;38381;53.688;10.776;2023-03-24T11:04:37;99555.13;;;12.00;68.78
52469;BME280;38381;53.688;10.776;2023-03-24T11:09:41;99557.59;;;12.08;69.73
52469;BME280;38381;53.688;10.776;2023-03-24T11:14:45;99561.25;;;12.41;68.81
52469;BME280;38381;53.688;10.776;2023-03-24T11:19:50;99571.28;;;12.60;67.88
52469;BME280;38381;53.688;10.776;2023-03-24T11:24:55;99576.72;;;12.49;66.40
52469;BME280;38381;53.688;10.776;2023-03-24T11:29:57;99589.72;;;12.49;65.89
52469;BME280;38381;53.688;10.776;2023-03-24T11:35:05;99600.44;;;12.32;66.30
52469;BME280;38381;53.688;10.776;2023-03-24T11:40:20;99604.25;;;12.14;67.39
52469;BME280;38381;53.688;10.776;2023-03-24T11:50:32;99586.47;;;12.80;65.87
52469;BME280;38381;53.688;10.776;2023-03-24T12:01:00;99573.88;;;13.39;62.27
52469;BME280;38381;53.688;10.776;2023-03-24T12:17:02;99579.47;;;13.93;58.57
52469;BME280;38381;53.688;10.776;2023-03-24T12:23:09;99578.38;;;14.01;58.86
52469;BME280;38381;53.688;10.776;2023-03-24T12:38:31;99579.19;;;14.03;57.21
52469;BME280;38381;53.688;10.776;2023-03-24T12:43:38;99580.53;;;14.18;57.97
52469;BME280;38381;53.688;10.776;2023-03-24T12:49:11;99578.69;;;13.89;57.78
52469;BME280;38381;53.688;10.776;2023-03-24T12:59:47;99582.69;;;14.02;57.06
52469;BME280;38381;53.688;10.776;2023-03-24T13:04:54;99594.38;;;14.20;57.43
52469;BME280;38381;53.688;10.776;2023-03-24T13:10:02;99592.19;;;14.05;56.53
52469;BME280;38381;53.688;10.776;2023-03-24T13:20:16;99585.13;;;14.08;54.78
52469;BME280;38381;53.688;10.776;2023-03-24T13:30:37;99590.88;;;14.21;55.63
52469;BME280;38381;53.688;10.776;2023-03-24T13:41:03;99593.22;;;13.63;55.00
52469;BME280;38381;53.688;10.776;2023-03-24T13:46:06;99602.34;;;13.81;55.72
52469;BME280;38381;53.688;10.776;2023-03-24T13:51:18;99593.16;;;14.01;56.56
52469;BME280;38381;53.688;10.776;2023-03-24T14:23:48;99595.44;;;13.80;51.48
52469;BME280;38381;53.688;10.776;2023-03-24T14:28:52;99583.41;;;13.75;51.60
52469;BME280;38381;53.688;10.776;2023-03-24T14:33:58;99593.19;;;13.65;53.49
52469;BME280;38381;53.688;10.776;2023-03-24T14:39:42;99578.38;;;13.67;52.73
52469;BME280;38381;53.688;10.776;2023-03-24T14:49:51;99590.03;;;13.54;53.48
52469;BME280;38381;53.688;10.776;2023-03-24T14:55:02;99595.25;;;13.52;52.28
52469;BME280;38381;53.688;10.776;2023-03-24T15:10:36;99590.59;;;13.99;50.32
52469;BME280;38381;53.688;10.776;2023-03-24T15:15:45;99601.72;;;14.06;48.23
52469;BME280;38381;53.688;10.776;2023-03-24T15:20:47;99608.53;;;14.12;47.69
52469;BME280;38381;53.688;10.776;2023-03-24T15:25:48;99596.31;;;14.14;47.63
52469;BME280;38381;53.688;10.776;2023-03-24T15:30:49;99601.59;;;14.11;46.68
52469;BME280;38381;53.688;10.776;2023-03-24T15:35:55;99603.91;;;13.88;45.89
52469;BME280;38381;53.688;10.776;2023-03-24T15:41:01;99607.59;;;13.80;47.36
52469;BME280;38381;53.688;10.776;2023-03-24T15:46:03;99608.34;;;13.85;47.87
52469;BME280;38381;53.688;10.776;2023-03-24T15:51:07;99606.47;;;13.90;47.76
52469;BME280;38381;53.688;10.776;2023-03-24T15:56:18;99614.41;;;13.85;47.98
52469;BME280;38381;53.688;10.776;2023-03-24T16:01:23;99607.56;;;13.81;48.15
52469;BME280;38381;53.688;10.776;2023-03-24T16:06:28;99610.28;;;13.77;48.41
52469;BME280;38381;53.688;10.776;2023-03-24T16:11:29;99613.09;;;13.67;48.67
52469;BME280;38381;53.688;10.776;2023-03-24T16:16:36;99606.72;;;13.45;48.82
52469;BME280;38381;53.688;10.776;2023-03-24T16:21:37;99613.50;;;13.52;48.37
52469;BME280;38381;53.688;10.776;2023-03-24T16:26:38;99608.41;;;13.47;47.63
52469;BME280;38381;53.688;10.776;2023-03-24T16:31:38;99614.72;;;13.37;47.69
52469;BME280;38381;53.688;10.776;2023-03-24T16:36:39;99609.59;;;13.33;48.11
52469;BME280;38381;53.688;10.776;2023-03-24T16:41:39;99619.25;;;13.27;48.26
52469;BME280;38381;53.688;10.776;2023-03-24T16:46:40;99614.91;;;13.28;47.31
52469;BME280;38381;53.688;10.776;2023-03-24T16:51:41;99622.84;;;13.22;48.17
52469;BME280;38381;53.688;10.776;2023-03-24T16:56:42;99624.84;;;13.11;48.36
52469;BME280;38381;53.688;10.776;2023-03-24T17:01:43;99637.31;;;12.96;49.96
52469;BME280;38381;53.688;10.776;2023-03-24T17:06:46;99626.81;;;12.99;49.46
52469;BME280;38381;53.688;10.776;2023-03-24T17:11:54;99633.38;;;12.75;49.95
52469;BME280;38381;53.688;10.776;2023-03-24T17:16:55;99635.69;;;12.89;50.66
52469;BME280;38381;53.688;10.776;2023-03-24T17:22:00;99640.47;;;12.68;52.16
52469;BME280;38381;53.688;10.776;2023-03-24T17:27:02;99634.31;;;12.73;52.68
52469;BME280;38381;53.688;10.776;2023-03-24T17:32:03;99644.22;;;12.55;53.68
52469;BME280;38381;53.688;10.776;2023-03-24T17:37:04;99651.59;;;12.30;54.81
52469;BME280;38381;53.688;10.776;2023-03-24T17:42:05;99652.25;;;12.43;55.07
52469;BME280;38381;53.688;10.776;2023-03-24T17:47:05;99649.13;;;12.24;55.75
52469;BME280;38381;53.688;10.776;2023-03-24T17:52:06;99642.22;;;12.21;56.07
52469;BME280;38381;53.688;10.776;2023-03-24T17:57:06;99654.50;;;12.13;57.08
52469;BME280;38381;53.688;10.776;2023-03-24T18:02:10;99644.44;;;11.95;57.37
52469;BME280;38381;53.688;10.776;2023-03-24T18:07:11;99666.06;;;11.95;59.84
52469;BME280;38381;53.688;10.776;2023-03-24T18:12:12;99658.56;;;11.77;61.55
52469;BME280;38381;53.688;10.776;2023-03-24T18:17:12;99666.41;;;11.74;62.45
52469;BME280;38381;53.688;10.776;2023-03-24T18:22:13;99669.81;;;11.20;65.01
52469;BME280;38381;53.688;10.776;2023-03-24T18:27:13;99673.84;;;11.39;65.35
52469;BME280;38381;53.688;10.776;2023-03-24T18:32:14;99680.97;;;11.23;66.16
52469;BME280;38381;53.688;10.776;2023-03-24T18:37:14;99686.97;;;11.28;66.82
52469;BME280;38381;53.688;10.776;2023-03-24T18:42:15;99690.88;;;10.95;67.46
52469;BME280;38381;53.688;10.776;2023-03-24T18:47:15;99692.72;;;10.87;68.05
52469;BME280;38381;53.688;10.776;2023-03-24T18:52:16;99693.44;;;10.97;67.96
52469;BME280;38381;53.688;10.776;2023-03-24T18:57:17;99696.06;;;10.95;68.09
52469;BME280;38381;53.688;10.776;2023-03-24T19:02:19;99693.69;;;10.77;68.60
52469;BME280;38381;53.688;10.776;2023-03-24T19:07:19;99697.97;;;10.79;69.15
52469;BME280;38381;53.688;10.776;2023-03-24T19:12:25;99704.91;;;10.79;68.90
52469;BME280;38381;53.688;10.776;2023-03-24T19:17:26;99697.28;;;10.65;69.40
52469;BME280;38381;53.688;10.776;2023-03-24T19:22:27;99696.31;;;10.74;69.26
52469;BME280;38381;53.688;10.776;2023-03-24T19:27:27;99704.22;;;10.61;69.62
52469;BME280;38381;53.688;10.776;2023-03-24T19:32:27;99702.66;;;10.45;70.53
52469;BME280;38381;53.688;10.776;2023-03-24T19:37:28;99713.09;;;10.39;70.94
52469;BME280;38381;53.688;10.776;2023-03-24T19:42:31;99708.81;;;10.36;70.81
52469;BME280;38381;53.688;10.776;2023-03-24T19:47:31;99706.41;;;10.13;71.79
52469;BME280;38381;53.688;10.776;2023-03-24T19:52:33;99707.41;;;9.97;72.66
52469;BME280;38381;53.688;10.776;2023-03-24T19:57:34;99707.25;;;10.15;72.57
52469;BME280;38381;53.688;10.776;2023-03-24T20:02:36;99707.41;;;9.94;73.58
52469;BME280;38381;53.688;10.776;2023-03-24T20:07:36;99688.31;;;10.05;73.26
52469;BME280;38381;53.688;10.776;2023-03-24T20:12:37;99689.38;;;9.83;74.10
52469;BME280;38381;53.688;10.776;2023-03-24T20:17:37;99688.75;;;9.52;75.47
52469;BME280;38381;53.688;10.776;2023-03-24T20:22:40;99694.72;;;9.55;75.53
52469;BME280;38381;53.688;10.776;2023-03-24T20:27:41;99694.88;;;9.32;76.97
52469;BME280;38381;53.688;10.776;2023-03-24T20:32:44;99686.97;;;9.57;76.44
52469;BME280;38381;53.688;10.776;2023-03-24T20:37:45;99689.56;;;9.60;76.09
52469;BME280;38381;53.688;10.776;2023-03-24T20:42:45;99684.50;;;9.37;76.71
52469;BME280;38381;53.688;10.776;2023-03-24T20:47:45;99691.34;;;9.49;76.65
52469;BME280;38381;53.688;10.776;2023-03-24T20:52:46;99701.00;;;9.14;78.08
52469;BME280;38381;53.688;10.776;2023-03-24T20:57:46;99705.28;;;9.18;77.78
52469;BME280;38381;53.688;10.776;2023-03-24T21:02:47;99700.06;;;9.31;77.43
52469;BME280;38381;53.688;10.776;2023-03-24T21:07:47;99699.31;;;9.15;78.09
52469;BME280;38381;53.688;10.776;2023-03-24T21:12:48;99702.78;;;9.01;79.25
52469;BME280;38381;53.688;10.776;2023-03-24T21:17:48;99697.63;;;9.01;78.75
52469;BME280;38381;53.688;10.776;2023-03-24T21:22:49;99701.13;;;8.90;79.35
52469;BME280;38381;53.688;10.776;2023-03-24T21:27:53;99693.38;;;8.85;79.85
52469;BME280;38381;53.688;10.776;2023-03-24T21:32:55;99693.38;;;8.88;79.39
52469;BME280;38381;53.688;10.776;2023-03-24T21:37:55;99693.38;;;8.85;79.62
52469;BME280;38381;53.688;10.776;2023-03-24T21:42:56;99690.81;;;8.88;79.62
52469;BME280;38381;53.688;10.776;2023-03-24T21:48:05;99690.78;;;8.85;79.53
52469;BME280;38381;53.688;10.776;2023-03-24T21:53:05;99682.22;;;8.78;80.29
52469;BME280;38381;53.688;10.776;2023-03-24T21:58:14;99687.38;;;8.78;80.21
52469;BME280;38381;53.688;10.776;2023-03-24T22:03:15;99687.38;;;8.78;80.19
52469;BME280;38381;53.688;10.776;2023-03-24T22:08:16;99685.69;;;8.65;80.87
52469;BME280;38381;53.688;10.776;2023-03-24T22:13:21;99674.44;;;8.77;80.23
52469;BME280;38381;53.688;10.776;2023-03-24T22:18:23;99663.31;;;8.65;80.59
52469;BME280;38381;53.688;10.776;2023-03-24T22:23:24;99665.06;;;8.57;81.54
52469;BME280;38381;53.688;10.776;2023-03-24T22:28:24;99677.13;;;8.20;83.28
52469;BME280;38381;53.688;10.776;2023-03-24T22:33:24;99674.53;;;8.44;82.13
52469;BME280;38381;53.688;10.776;2023-03-24T22:38:25;99677.13;;;8.49;81.76
52469;BME280;38381;53.688;10.776;2023-03-24T22:43:27;99677.13;;;8.55;81.63
52469;BME280;38381;53.688;10.776;2023-03-24T22:48:27;99677.13;;;8.46;82.69
52469;BME280;38381;53.688;10.776;2023-03-24T22:53:28;99672.81;;;8.37;82.64
52469;BME280;38381;53.688;10.776;2023-03-24T22:58:29;99670.25;;;8.51;82.00
52469;BME280;38381;53.688;10.776;2023-03-24T23:03:29;99665.94;;;8.27;82.82
52469;BME280;38381;53.688;10.776;2023-03-24T23:08:31;99658.22;;;8.09;83.73
52469;BME280;38381;53.688;10.776;2023-03-24T23:13:32;99661.66;;;8.15;84.22
52469;BME280;38381;53.688;10.776;2023-03-24T23:18:35;99652.16;;;8.31;84.09
52469;BME280;38381;53.688;10.776;2023-03-24T23:23:36;99647.03;;;8.13;84.79
52469;BME280;38381;53.688;10.776;2023-03-24T23:28:42;99656.47;;;8.34;83.67
52469;BME280;38381;53.688;10.776;2023-03-24T23:33:43;99661.66;;;8.24;84.16
52469;BME280;38381;53.688;10.776;2023-03-24T23:38:45;99653.06;;;8.01;85.60
52469;BME280;38381;53.688;10.776;2023-03-24T23:43:51;99652.19;;;8.20;85.91
52469;BME280;38381;53.688;10.776;2023-03-24T23:48:52;99648.72;;;8.29;85.63
52469;BME280;38381;53.688;10.776;2023-03-24T23:53:52;99641.00;;;8.09;86.79
52469;BME280;38381;53.688;10.776;2023-03-24T23:58:52;99629.75;;;8.42;85.84
